sensor_id;sensor_type;location;lat;lon;timestamp;P1;durP1;ratioP1;P2;durP2;ratioP2
8319;SDS011;4197;42.130;24.746;2022-11-14T00:01:24;46.07;;;28.90;;
8319;SDS011;4197;42.130;24.746;2022-11-14T00:03:52;45.67;;;28.17;;
8319;SDS011;4197;42.130;24.746;2022-11-14T00:06:20;42.60;;;28.50;;
8319;SDS011;4197;42.130;24.746;2022-11-14T00:08:49;43.80;;;29.20;;
8319;SDS011;4197;42.130;24.746;2022-11-14T00:11:18;42.17;;;27.87;;
8319;SDS011;4197;42.130;24.746;2022-11-14T00:13:46;44.63;;;27.73;;
8319;SDS011;4197;42.130;24.746;2022-11-14T00:16:14;43.07;;;27.20;;
8319;SDS011;4197;42.130;24.746;2022-11-14T00:18:43;44.07;;;28.30;;
8319;SDS011;4197;42.130;24.746;2022-11-14T00:21:11;46.47;;;28.77;;
8319;SDS011;4197;42.130;24.746;2022-11-14T00:23:39;39.93;;;27.17;;
8319;SDS011;4197;42.130;24.746;2022-11-14T00:26:07;44.07;;;27.87;;
8319;SDS011;4197;42.130;24.746;2022-11-14T00:28:37;44.80;;;28.00;;
8319;SDS011;4197;42.130;24.746;2022-11-14T00:31:05;43.50;;;28.70;;
8319;SDS011;4197;42.130;24.746;2022-11-14T00:33:33;43.53;;;27.80;;
8319;SDS011;4197;42.130;24.746;2022-11-14T00:36:02;47.70;;;28.63;;
8319;SDS011;4197;42.130;24.746;2022-11-14T00:38:30;46.00;;;28.30;;
8319;SDS011;4197;42.130;24.746;2022-11-14T00:40:58;47.90;;;28.97;;
8319;SDS011;4197;42.130;24.746;2022-11-14T00:43:26;39.27;;;26.23;;
8319;SDS011;4197;42.130;24.746;2022-11-14T00:45:55;42.23;;;26.80;;
8319;SDS011;4197;42.130;24.746;2022-11-14T00:48:24;42.37;;;27.57;;
8319;SDS011;4197;42.130;24.746;2022-11-14T00:50:52;43.00;;;27.33;;
8319;SDS011;4197;42.130;24.746;2022-11-14T00:53:20;43.03;;;27.07;;
8319;SDS011;4197;42.130;24.746;2022-11-14T00:55:48;41.13;;;24.90;;
8319;SDS011;4197;42.130;24.746;2022-11-14T00:58:16;41.20;;;26.73;;
8319;SDS011;4197;42.130;24.746;2022-11-14T01:00:44;38.50;;;25.70;;
8319;SDS011;4197;42.130;24.746;2022-11-14T01:03:14;43.33;;;26.13;;
8319;SDS011;4197;42.130;24.746;2022-11-14T01:05:42;47.87;;;28.63;;
8319;SDS011;4197;42.130;24.746;2022-11-14T01:08:12;46.77;;;27.67;;
8319;SDS011;4197;42.130;24.746;2022-11-14T01:10:41;42.60;;;27.97;;
8319;SDS011;4197;42.130;24.746;2022-11-14T01:13:10;43.20;;;27.33;;
8319;SDS011;4197;42.130;24.746;2022-11-14T01:15:39;42.90;;;28.27;;
8319;SDS011;4197;42.130;24.746;2022-11-14T01:18:08;41.63;;;26.33;;
8319;SDS011;4197;42.130;24.746;2022-11-14T01:20:39;43.30;;;28.27;;
8319;SDS011;4197;42.130;24.746;2022-11-14T01:23:07;42.13;;;26.43;;
8319;SDS011;4197;42.130;24.746;2022-11-14T01:25:37;48.20;;;28.83;;
8319;SDS011;4197;42.130;24.746;2022-11-14T01:28:06;42.83;;;25.73;;
8319;SDS011;4197;42.130;24.746;2022-11-14T01:30:35;45.50;;;25.70;;
8319;SDS011;4197;42.130;24.746;2022-11-14T01:33:04;42.03;;;25.73;;
8319;SDS011;4197;42.130;24.746;2022-11-14T01:35:33;40.77;;;25.67;;
8319;SDS011;4197;42.130;24.746;2022-11-14T01:38:04;43.07;;;27.00;;
8319;SDS011;4197;42.130;24.746;2022-11-14T01:40:32;40.43;;;26.07;;
8319;SDS011;4197;42.130;24.746;2022-11-14T01:43:22;38.80;;;24.83;;
8319;SDS011;4197;42.130;24.746;2022-11-14T01:45:53;40.17;;;25.47;;
8319;SDS011;4197;42.130;24.746;2022-11-14T01:48:25;41.67;;;24.43;;
8319;SDS011;4197;42.130;24.746;2022-11-14T01:50:59;43.80;;;26.27;;
8319;SDS011;4197;42.130;24.746;2022-11-14T01:53:31;42.37;;;24.50;;
8319;SDS011;4197;42.130;24.746;2022-11-14T01:56:00;38.00;;;25.13;;
8319;SDS011;4197;42.130;24.746;2022-11-14T01:58:30;36.87;;;23.80;;
8319;SDS011;4197;42.130;24.746;2022-11-14T02:01:03;44.70;;;24.97;;
8319;SDS011;4197;42.130;24.746;2022-11-14T02:03:32;41.60;;;25.20;;
8319;SDS011;4197;42.130;24.746;2022-11-14T02:06:04;40.57;;;24.07;;
8319;SDS011;4197;42.130;24.746;2022-11-14T02:08:35;36.00;;;24.00;;
8319;SDS011;4197;42.130;24.746;2022-11-14T02:11:04;39.17;;;23.97;;
8319;SDS011;4197;42.130;24.746;2022-11-14T02:13:32;38.77;;;24.27;;
8319;SDS011;4197;42.130;24.746;2022-11-14T02:16:00;33.57;;;22.27;;
8319;SDS011;4197;42.130;24.746;2022-11-14T02:18:29;38.03;;;22.80;;
8319;SDS011;4197;42.130;24.746;2022-11-14T02:20:58;37.23;;;24.07;;
8319;SDS011;4197;42.130;24.746;2022-11-14T02:23:27;36.47;;;23.80;;
8319;SDS011;4197;42.130;24.746;2022-11-14T02:25:57;38.00;;;22.27;;
8319;SDS011;4197;42.130;24.746;2022-11-14T02:28:25;34.27;;;22.27;;
8319;SDS011;4197;42.130;24.746;2022-11-14T02:30:54;39.13;;;23.43;;
8319;SDS011;4197;42.130;24.746;2022-11-14T02:33:22;36.40;;;22.67;;
8319;SDS011;4197;42.130;24.746;2022-11-14T02:35:50;38.97;;;22.00;;
8319;SDS011;4197;42.130;24.746;2022-11-14T02:38:20;33.97;;;22.17;;
8319;SDS011;4197;42.130;24.746;2022-11-14T02:40:48;37.53;;;22.87;;
8319;SDS011;4197;42.130;24.746;2022-11-14T02:43:16;34.87;;;21.20;;
8319;SDS011;4197;42.130;24.746;2022-11-14T02:45:44;33.83;;;22.03;;
8319;SDS011;4197;42.130;24.746;2022-11-14T02:48:12;35.07;;;23.27;;
8319;SDS011;4197;42.130;24.746;2022-11-14T02:50:40;39.07;;;23.60;;
8319;SDS011;4197;42.130;24.746;2022-11-14T02:53:08;32.83;;;21.90;;
8319;SDS011;4197;42.130;24.746;2022-11-14T02:55:37;32.10;;;21.83;;
8319;SDS011;4197;42.130;24.746;2022-11-14T02:58:06;32.53;;;20.93;;
8319;SDS011;4197;42.130;24.746;2022-11-14T03:00:34;35.27;;;22.23;;
8319;SDS011;4197;42.130;24.746;2022-11-14T03:03:22;29.83;;;20.83;;
8319;SDS011;4197;42.130;24.746;2022-11-14T03:05:50;33.27;;;22.60;;
8319;SDS011;4197;42.130;24.746;2022-11-14T03:08:18;33.50;;;21.80;;
8319;SDS011;4197;42.130;24.746;2022-11-14T03:10:48;32.47;;;22.27;;
8319;SDS011;4197;42.130;24.746;2022-11-14T03:13:16;36.90;;;23.10;;
8319;SDS011;4197;42.130;24.746;2022-11-14T03:15:44;37.77;;;22.60;;
8319;SDS011;4197;42.130;24.746;2022-11-14T03:18:12;34.87;;;22.53;;
8319;SDS011;4197;42.130;24.746;2022-11-14T03:20:42;33.77;;;22.50;;
8319;SDS011;4197;42.130;24.746;2022-11-14T03:23:10;34.37;;;22.57;;
8319;SDS011;4197;42.130;24.746;2022-11-14T03:25:38;34.73;;;22.47;;
8319;SDS011;4197;42.130;24.746;2022-11-14T03:28:07;34.10;;;21.40;;
8319;SDS011;4197;42.130;24.746;2022-11-14T03:30:35;34.67;;;21.97;;
8319;SDS011;4197;42.130;24.746;2022-11-14T03:33:03;36.97;;;22.13;;
8319;SDS011;4197;42.130;24.746;2022-11-14T03:35:32;38.30;;;23.63;;
8319;SDS011;4197;42.130;24.746;2022-11-14T03:38:00;35.67;;;22.70;;
8319;SDS011;4197;42.130;24.746;2022-11-14T03:40:28;35.83;;;22.57;;
8319;SDS011;4197;42.130;24.746;2022-11-14T03:42:56;37.17;;;24.00;;
8319;SDS011;4197;42.130;24.746;2022-11-14T03:45:25;37.17;;;23.40;;
8319;SDS011;4197;42.130;24.746;2022-11-14T03:47:53;39.07;;;24.00;;
8319;SDS011;4197;42.130;24.746;2022-11-14T03:50:21;37.80;;;23.70;;
8319;SDS011;4197;42.130;24.746;2022-11-14T03:52:49;42.20;;;24.87;;
8319;SDS011;4197;42.130;24.746;2022-11-14T03:55:17;38.00;;;23.20;;
8319;SDS011;4197;42.130;24.746;2022-11-14T03:57:45;37.37;;;23.00;;
8319;SDS011;4197;42.130;24.746;2022-11-14T04:00:14;36.63;;;24.03;;
8319;SDS011;4197;42.130;24.746;2022-11-14T04:02:43;35.97;;;23.33;;
8319;SDS011;4197;42.130;24.746;2022-11-14T04:05:13;36.40;;;23.43;;
8319;SDS011;4197;42.130;24.746;2022-11-14T04:07:41;38.30;;;23.23;;
8319;SDS011;4197;42.130;24.746;2022-11-14T04:10:09;37.23;;;25.33;;
8319;SDS011;4197;42.130;24.746;2022-11-14T04:12:37;36.53;;;24.70;;
8319;SDS011;4197;42.130;24.746;2022-11-14T04:15:06;37.50;;;24.33;;
8319;SDS011;4197;42.130;24.746;2022-11-14T04:17:34;36.83;;;24.33;;
8319;SDS011;4197;42.130;24.746;2022-11-14T04:20:07;41.47;;;24.93;;
8319;SDS011;4197;42.130;24.746;2022-11-14T04:22:36;35.97;;;23.70;;
8319;SDS011;4197;42.130;24.746;2022-11-14T04:25:05;35.50;;;24.03;;
8319;SDS011;4197;42.130;24.746;2022-11-14T04:27:34;36.80;;;23.90;;
8319;SDS011;4197;42.130;24.746;2022-11-14T04:30:03;39.50;;;24.43;;
8319;SDS011;4197;42.130;24.746;2022-11-14T04:32:31;41.37;;;25.50;;
8319;SDS011;4197;42.130;24.746;2022-11-14T04:34:59;36.93;;;24.40;;
8319;SDS011;4197;42.130;24.746;2022-11-14T04:37:29;48.43;;;25.57;;
8319;SDS011;4197;42.130;24.746;2022-11-14T04:39:57;37.93;;;24.67;;
8319;SDS011;4197;42.130;24.746;2022-11-14T04:42:27;44.40;;;24.53;;
8319;SDS011;4197;42.130;24.746;2022-11-14T04:44:55;35.43;;;22.43;;
8319;SDS011;4197;42.130;24.746;2022-11-14T04:47:23;39.43;;;24.67;;
8319;SDS011;4197;42.130;24.746;2022-11-14T04:49:51;38.93;;;25.50;;
8319;SDS011;4197;42.130;24.746;2022-11-14T04:52:19;42.13;;;26.53;;
8319;SDS011;4197;42.130;24.746;2022-11-14T04:54:49;42.23;;;25.67;;
8319;SDS011;4197;42.130;24.746;2022-11-14T04:57:17;38.87;;;25.97;;
8319;SDS011;4197;42.130;24.746;2022-11-14T04:59:45;39.23;;;25.27;;
8319;SDS011;4197;42.130;24.746;2022-11-14T05:02:13;40.93;;;25.27;;
8319;SDS011;4197;42.130;24.746;2022-11-14T05:04:41;42.57;;;27.07;;
8319;SDS011;4197;42.130;24.746;2022-11-14T05:07:10;41.63;;;26.63;;
8319;SDS011;4197;42.130;24.746;2022-11-14T05:09:38;46.67;;;27.97;;
8319;SDS011;4197;42.130;24.746;2022-11-14T05:12:07;44.73;;;28.00;;
8319;SDS011;4197;42.130;24.746;2022-11-14T05:14:35;44.53;;;27.80;;
8319;SDS011;4197;42.130;24.746;2022-11-14T05:17:03;40.17;;;26.40;;
8319;SDS011;4197;42.130;24.746;2022-11-14T05:19:31;42.63;;;26.30;;
8319;SDS011;4197;42.130;24.746;2022-11-14T05:21:59;46.07;;;28.47;;
8319;SDS011;4197;42.130;24.746;2022-11-14T05:24:28;46.37;;;28.70;;
8319;SDS011;4197;42.130;24.746;2022-11-14T05:26:57;43.73;;;27.90;;
8319;SDS011;4197;42.130;24.746;2022-11-14T05:29:26;45.70;;;28.97;;
8319;SDS011;4197;42.130;24.746;2022-11-14T05:31:55;49.17;;;27.53;;
8319;SDS011;4197;42.130;24.746;2022-11-14T05:34:24;43.60;;;28.33;;
8319;SDS011;4197;42.130;24.746;2022-11-14T05:36:52;46.90;;;28.70;;
8319;SDS011;4197;42.130;24.746;2022-11-14T05:39:20;43.30;;;27.07;;
8319;SDS011;4197;42.130;24.746;2022-11-14T05:41:48;48.90;;;29.80;;
8319;SDS011;4197;42.130;24.746;2022-11-14T05:44:16;46.93;;;28.23;;
8319;SDS011;4197;42.130;24.746;2022-11-14T05:46:45;47.97;;;29.27;;
8319;SDS011;4197;42.130;24.746;2022-11-14T05:49:13;45.17;;;27.57;;
8319;SDS011;4197;42.130;24.746;2022-11-14T05:51:47;44.83;;;29.37;;
8319;SDS011;4197;42.130;24.746;2022-11-14T05:54:15;49.50;;;27.57;;
8319;SDS011;4197;42.130;24.746;2022-11-14T05:56:43;52.00;;;29.20;;
8319;SDS011;4197;42.130;24.746;2022-11-14T05:59:11;42.90;;;28.57;;
8319;SDS011;4197;42.130;24.746;2022-11-14T06:01:39;51.07;;;28.20;;
8319;SDS011;4197;42.130;24.746;2022-11-14T06:04:09;48.30;;;29.83;;
8319;SDS011;4197;42.130;24.746;2022-11-14T06:06:40;45.13;;;31.63;;
8319;SDS011;4197;42.130;24.746;2022-11-14T06:09:08;47.63;;;28.87;;
8319;SDS011;4197;42.130;24.746;2022-11-14T06:11:36;44.13;;;28.67;;
8319;SDS011;4197;42.130;24.746;2022-11-14T06:14:04;49.67;;;30.67;;
8319;SDS011;4197;42.130;24.746;2022-11-14T06:16:36;46.47;;;28.90;;
8319;SDS011;4197;42.130;24.746;2022-11-14T06:19:04;46.73;;;30.00;;
8319;SDS011;4197;42.130;24.746;2022-11-14T06:21:34;49.70;;;30.57;;
8319;SDS011;4197;42.130;24.746;2022-11-14T06:24:02;49.57;;;30.37;;
8319;SDS011;4197;42.130;24.746;2022-11-14T06:26:30;49.50;;;29.70;;
8319;SDS011;4197;42.130;24.746;2022-11-14T06:28:58;45.43;;;30.00;;
8319;SDS011;4197;42.130;24.746;2022-11-14T06:31:27;43.77;;;28.90;;
8319;SDS011;4197;42.130;24.746;2022-11-14T06:33:55;47.70;;;30.13;;
8319;SDS011;4197;42.130;24.746;2022-11-14T06:36:23;50.27;;;30.80;;
8319;SDS011;4197;42.130;24.746;2022-11-14T06:38:53;47.80;;;28.13;;
8319;SDS011;4197;42.130;24.746;2022-11-14T06:41:21;41.10;;;25.70;;
8319;SDS011;4197;42.130;24.746;2022-11-14T06:43:50;39.20;;;24.23;;
8319;SDS011;4197;42.130;24.746;2022-11-14T06:46:20;34.53;;;22.73;;
8319;SDS011;4197;42.130;24.746;2022-11-14T06:48:49;33.70;;;22.00;;
8319;SDS011;4197;42.130;24.746;2022-11-14T06:51:18;32.27;;;21.67;;
8319;SDS011;4197;42.130;24.746;2022-11-14T06:53:46;32.73;;;22.57;;
8319;SDS011;4197;42.130;24.746;2022-11-14T06:56:16;32.50;;;22.50;;
8319;SDS011;4197;42.130;24.746;2022-11-14T06:58:46;38.20;;;24.30;;
8319;SDS011;4197;42.130;24.746;2022-11-14T07:01:15;31.90;;;22.00;;
8319;SDS011;4197;42.130;24.746;2022-11-14T07:03:45;33.30;;;22.47;;
8319;SDS011;4197;42.130;24.746;2022-11-14T07:06:14;31.60;;;19.57;;
8319;SDS011;4197;42.130;24.746;2022-11-14T07:08:44;35.37;;;20.23;;
8319;SDS011;4197;42.130;24.746;2022-11-14T07:11:13;25.93;;;17.83;;
8319;SDS011;4197;42.130;24.746;2022-11-14T07:13:49;29.47;;;18.87;;
8319;SDS011;4197;42.130;24.746;2022-11-14T07:16:19;30.60;;;18.93;;
8319;SDS011;4197;42.130;24.746;2022-11-14T07:18:50;28.43;;;18.30;;
8319;SDS011;4197;42.130;24.746;2022-11-14T07:21:18;27.07;;;19.20;;
8319;SDS011;4197;42.130;24.746;2022-11-14T07:23:46;28.90;;;19.53;;
8319;SDS011;4197;42.130;24.746;2022-11-14T07:26:14;25.87;;;17.93;;
8319;SDS011;4197;42.130;24.746;2022-11-14T07:28:43;26.93;;;18.80;;
8319;SDS011;4197;42.130;24.746;2022-11-14T07:31:19;25.97;;;18.27;;
8319;SDS011;4197;42.130;24.746;2022-11-14T07:33:47;32.00;;;19.53;;
8319;SDS011;4197;42.130;24.746;2022-11-14T07:36:16;32.97;;;19.70;;
8319;SDS011;4197;42.130;24.746;2022-11-14T07:38:45;30.80;;;20.03;;
8319;SDS011;4197;42.130;24.746;2022-11-14T07:41:15;27.20;;;19.00;;
8319;SDS011;4197;42.130;24.746;2022-11-14T07:43:44;29.37;;;20.17;;
8319;SDS011;4197;42.130;24.746;2022-11-14T07:46:13;27.77;;;19.13;;
8319;SDS011;4197;42.130;24.746;2022-11-14T07:48:43;30.30;;;19.63;;
8319;SDS011;4197;42.130;24.746;2022-11-14T07:51:13;30.80;;;19.77;;
8319;SDS011;4197;42.130;24.746;2022-11-14T07:53:42;28.53;;;19.87;;
8319;SDS011;4197;42.130;24.746;2022-11-14T07:56:11;28.40;;;18.37;;
8319;SDS011;4197;42.130;24.746;2022-11-14T07:58:39;32.70;;;19.63;;
8319;SDS011;4197;42.130;24.746;2022-11-14T08:01:09;30.57;;;19.37;;
8319;SDS011;4197;42.130;24.746;2022-11-14T08:03:39;29.80;;;18.67;;
8319;SDS011;4197;42.130;24.746;2022-11-14T08:06:13;30.30;;;20.30;;
8319;SDS011;4197;42.130;24.746;2022-11-14T08:08:42;30.43;;;19.13;;
8319;SDS011;4197;42.130;24.746;2022-11-14T08:11:10;32.37;;;19.60;;
8319;SDS011;4197;42.130;24.746;2022-11-14T08:13:48;27.90;;;20.27;;
8319;SDS011;4197;42.130;24.746;2022-11-14T08:16:16;27.27;;;19.80;;
8319;SDS011;4197;42.130;24.746;2022-11-14T08:18:44;28.93;;;18.37;;
8319;SDS011;4197;42.130;24.746;2022-11-14T08:21:14;27.80;;;18.63;;
8319;SDS011;4197;42.130;24.746;2022-11-14T08:23:42;34.43;;;19.70;;
8319;SDS011;4197;42.130;24.746;2022-11-14T08:26:11;29.97;;;19.37;;
8319;SDS011;4197;42.130;24.746;2022-11-14T08:28:39;29.83;;;19.80;;
8319;SDS011;4197;42.130;24.746;2022-11-14T08:31:07;30.70;;;19.70;;
8319;SDS011;4197;42.130;24.746;2022-11-14T08:33:36;23.50;;;17.43;;
8319;SDS011;4197;42.130;24.746;2022-11-14T08:36:05;25.47;;;18.27;;
8319;SDS011;4197;42.130;24.746;2022-11-14T08:38:35;25.70;;;17.13;;
8319;SDS011;4197;42.130;24.746;2022-11-14T08:41:04;29.77;;;15.90;;
8319;SDS011;4197;42.130;24.746;2022-11-14T08:43:32;26.63;;;16.93;;
8319;SDS011;4197;42.130;24.746;2022-11-14T08:46:01;27.83;;;16.77;;
8319;SDS011;4197;42.130;24.746;2022-11-14T08:48:31;23.33;;;16.13;;
8319;SDS011;4197;42.130;24.746;2022-11-14T08:51:03;22.60;;;15.33;;
8319;SDS011;4197;42.130;24.746;2022-11-14T08:53:33;21.97;;;15.37;;
8319;SDS011;4197;42.130;24.746;2022-11-14T08:56:03;20.83;;;15.00;;
8319;SDS011;4197;42.130;24.746;2022-11-14T08:58:32;19.07;;;14.20;;
8319;SDS011;4197;42.130;24.746;2022-11-14T09:01:00;21.73;;;15.33;;
8319;SDS011;4197;42.130;24.746;2022-11-14T09:03:30;22.53;;;15.17;;
8319;SDS011;4197;42.130;24.746;2022-11-14T09:05:59;23.53;;;15.43;;
8319;SDS011;4197;42.130;24.746;2022-11-14T09:08:28;23.00;;;15.27;;
8319;SDS011;4197;42.130;24.746;2022-11-14T09:10:58;21.23;;;15.43;;
8319;SDS011;4197;42.130;24.746;2022-11-14T09:13:32;21.77;;;14.43;;
8319;SDS011;4197;42.130;24.746;2022-11-14T09:16:04;20.00;;;15.07;;
8319;SDS011;4197;42.130;24.746;2022-11-14T09:18:32;21.33;;;14.63;;
8319;SDS011;4197;42.130;24.746;2022-11-14T09:21:01;25.43;;;15.63;;
8319;SDS011;4197;42.130;24.746;2022-11-14T09:23:30;23.37;;;15.20;;
8319;SDS011;4197;42.130;24.746;2022-11-14T09:26:02;23.10;;;14.93;;
8319;SDS011;4197;42.130;24.746;2022-11-14T09:28:30;24.67;;;15.70;;
8319;SDS011;4197;42.130;24.746;2022-11-14T09:31:00;22.23;;;15.80;;
8319;SDS011;4197;42.130;24.746;2022-11-14T09:33:29;23.13;;;16.77;;
8319;SDS011;4197;42.130;24.746;2022-11-14T09:35:58;22.13;;;15.00;;
8319;SDS011;4197;42.130;24.746;2022-11-14T09:38:27;21.37;;;14.83;;
8319;SDS011;4197;42.130;24.746;2022-11-14T09:41:08;20.67;;;14.63;;
8319;SDS011;4197;42.130;24.746;2022-11-14T09:46:46;26.40;;;15.73;;
8319;SDS011;4197;42.130;24.746;2022-11-14T09:49:22;19.60;;;15.77;;
8319;SDS011;4197;42.130;24.746;2022-11-14T09:51:58;25.13;;;16.10;;
8319;SDS011;4197;42.130;24.746;2022-11-14T09:54:34;24.60;;;16.10;;
8319;SDS011;4197;42.130;24.746;2022-11-14T09:57:14;23.63;;;15.57;;
8319;SDS011;4197;42.130;24.746;2022-11-14T09:59:46;24.80;;;16.07;;
8319;SDS011;4197;42.130;24.746;2022-11-14T10:02:19;21.27;;;16.07;;
8319;SDS011;4197;42.130;24.746;2022-11-14T10:05:01;28.20;;;17.07;;
8319;SDS011;4197;42.130;24.746;2022-11-14T10:07:43;28.23;;;16.37;;
8319;SDS011;4197;42.130;24.746;2022-11-14T10:10:24;25.53;;;17.37;;
8319;SDS011;4197;42.130;24.746;2022-11-14T10:13:05;25.00;;;17.67;;
8319;SDS011;4197;42.130;24.746;2022-11-14T10:15:48;24.60;;;16.97;;
8319;SDS011;4197;42.130;24.746;2022-11-14T10:18:28;27.20;;;18.80;;
8319;SDS011;4197;42.130;24.746;2022-11-14T10:21:08;25.87;;;16.97;;
8319;SDS011;4197;42.130;24.746;2022-11-14T10:23:55;32.00;;;21.20;;
8319;SDS011;4197;42.130;24.746;2022-11-14T10:26:31;36.27;;;20.30;;
8319;SDS011;4197;42.130;24.746;2022-11-14T10:29:10;30.10;;;20.43;;
8319;SDS011;4197;42.130;24.746;2022-11-14T10:32:02;33.67;;;19.60;;
8319;SDS011;4197;42.130;24.746;2022-11-14T10:34:38;26.00;;;18.47;;
8319;SDS011;4197;42.130;24.746;2022-11-14T10:37:14;27.80;;;20.00;;
8319;SDS011;4197;42.130;24.746;2022-11-14T10:39:48;30.03;;;18.73;;
8319;SDS011;4197;42.130;24.746;2022-11-14T10:42:23;25.83;;;19.00;;
8319;SDS011;4197;42.130;24.746;2022-11-14T10:44:56;31.40;;;22.87;;
8319;SDS011;4197;42.130;24.746;2022-11-14T10:47:32;23.90;;;18.13;;
8319;SDS011;4197;42.130;24.746;2022-11-14T10:50:10;26.43;;;18.77;;
8319;SDS011;4197;42.130;24.746;2022-11-14T10:52:44;30.73;;;19.40;;
8319;SDS011;4197;42.130;24.746;2022-11-14T10:55:15;27.97;;;19.23;;
8319;SDS011;4197;42.130;24.746;2022-11-14T10:57:44;31.53;;;20.40;;
8319;SDS011;4197;42.130;24.746;2022-11-14T11:00:13;32.50;;;20.77;;
8319;SDS011;4197;42.130;24.746;2022-11-14T11:02:48;27.17;;;19.20;;
8319;SDS011;4197;42.130;24.746;2022-11-14T11:05:20;24.67;;;19.20;;
8319;SDS011;4197;42.130;24.746;2022-11-14T11:07:49;27.70;;;20.13;;
8319;SDS011;4197;42.130;24.746;2022-11-14T11:10:56;32.33;;;19.83;;
8319;SDS011;4197;42.130;24.746;2022-11-14T11:13:47;26.83;;;19.93;;
8319;SDS011;4197;42.130;24.746;2022-11-14T11:16:20;29.27;;;20.47;;
8319;SDS011;4197;42.130;24.746;2022-11-14T11:18:51;30.00;;;20.43;;
8319;SDS011;4197;42.130;24.746;2022-11-14T11:21:20;28.30;;;19.87;;
8319;SDS011;4197;42.130;24.746;2022-11-14T11:23:50;25.73;;;19.07;;
8319;SDS011;4197;42.130;24.746;2022-11-14T11:26:21;34.57;;;21.73;;
8319;SDS011;4197;42.130;24.746;2022-11-14T11:29:01;33.90;;;21.67;;
8319;SDS011;4197;42.130;24.746;2022-11-14T11:31:50;28.53;;;20.10;;
8319;SDS011;4197;42.130;24.746;2022-11-14T11:34:23;29.77;;;20.73;;
8319;SDS011;4197;42.130;24.746;2022-11-14T11:36:54;31.63;;;20.77;;
8319;SDS011;4197;42.130;24.746;2022-11-14T11:39:26;29.07;;;18.93;;
8319;SDS011;4197;42.130;24.746;2022-11-14T11:41:57;30.30;;;21.33;;
8319;SDS011;4197;42.130;24.746;2022-11-14T11:44:37;29.10;;;19.67;;
8319;SDS011;4197;42.130;24.746;2022-11-14T11:47:11;28.80;;;20.13;;
8319;SDS011;4197;42.130;24.746;2022-11-14T11:49:45;34.73;;;22.13;;
8319;SDS011;4197;42.130;24.746;2022-11-14T11:52:22;30.07;;;20.33;;
8319;SDS011;4197;42.130;24.746;2022-11-14T11:54:59;30.53;;;21.27;;
8319;SDS011;4197;42.130;24.746;2022-11-14T11:57:33;30.93;;;21.17;;
8319;SDS011;4197;42.130;24.746;2022-11-14T12:00:06;36.57;;;21.13;;
8319;SDS011;4197;42.130;24.746;2022-11-14T12:02:41;29.53;;;20.97;;
8319;SDS011;4197;42.130;24.746;2022-11-14T12:05:17;37.43;;;21.70;;
8319;SDS011;4197;42.130;24.746;2022-11-14T12:07:54;32.93;;;20.03;;
8319;SDS011;4197;42.130;24.746;2022-11-14T12:10:30;27.70;;;19.57;;
8319;SDS011;4197;42.130;24.746;2022-11-14T12:16:21;29.90;;;20.10;;
8319;SDS011;4197;42.130;24.746;2022-11-14T12:19:04;27.97;;;18.57;;
8319;SDS011;4197;42.130;24.746;2022-11-14T12:22:01;28.03;;;18.93;;
8319;SDS011;4197;42.130;24.746;2022-11-14T12:25:07;24.37;;;18.63;;
8319;SDS011;4197;42.130;24.746;2022-11-14T12:27:54;27.50;;;19.63;;
8319;SDS011;4197;42.130;24.746;2022-11-14T12:30:32;28.43;;;20.50;;
8319;SDS011;4197;42.130;24.746;2022-11-14T12:33:02;30.67;;;20.23;;
8319;SDS011;4197;42.130;24.746;2022-11-14T12:35:35;26.93;;;19.57;;
8319;SDS011;4197;42.130;24.746;2022-11-14T12:38:11;28.20;;;20.50;;
8319;SDS011;4197;42.130;24.746;2022-11-14T12:40:48;29.33;;;18.53;;
8319;SDS011;4197;42.130;24.746;2022-11-14T12:43:27;24.53;;;18.83;;
8319;SDS011;4197;42.130;24.746;2022-11-14T12:46:03;28.17;;;19.50;;
8319;SDS011;4197;42.130;24.746;2022-11-14T12:48:36;28.47;;;19.80;;
8319;SDS011;4197;42.130;24.746;2022-11-14T12:57:15;27.63;;;19.47;;
8319;SDS011;4197;42.130;24.746;2022-11-14T13:00:06;26.63;;;18.93;;
8319;SDS011;4197;42.130;24.746;2022-11-14T13:02:42;29.80;;;20.03;;
8319;SDS011;4197;42.130;24.746;2022-11-14T13:05:37;31.50;;;20.37;;
8319;SDS011;4197;42.130;24.746;2022-11-14T13:08:21;33.17;;;20.50;;
8319;SDS011;4197;42.130;24.746;2022-11-14T13:14:26;29.40;;;20.73;;
8319;SDS011;4197;42.130;24.746;2022-11-14T13:17:23;30.17;;;20.60;;
8319;SDS011;4197;42.130;24.746;2022-11-14T13:20:24;32.43;;;20.97;;
8319;SDS011;4197;42.130;24.746;2022-11-14T13:35:38;27.30;;;20.17;;
8319;SDS011;4197;42.130;24.746;2022-11-14T13:41:51;29.03;;;22.10;;
8319;SDS011;4197;42.130;24.746;2022-11-14T13:44:53;28.67;;;20.77;;
8319;SDS011;4197;42.130;24.746;2022-11-14T13:47:46;28.63;;;20.37;;
8319;SDS011;4197;42.130;24.746;2022-11-14T13:50:33;31.37;;;21.40;;
8319;SDS011;4197;42.130;24.746;2022-11-14T13:53:09;30.40;;;20.23;;
8319;SDS011;4197;42.130;24.746;2022-11-14T13:55:46;30.60;;;20.73;;
8319;SDS011;4197;42.130;24.746;2022-11-14T13:58:27;32.30;;;21.87;;
8319;SDS011;4197;42.130;24.746;2022-11-14T14:01:22;26.47;;;18.97;;
8319;SDS011;4197;42.130;24.746;2022-11-14T14:04:14;28.20;;;20.83;;
8319;SDS011;4197;42.130;24.746;2022-11-14T14:06:56;33.73;;;20.87;;
8319;SDS011;4197;42.130;24.746;2022-11-14T14:09:36;30.60;;;20.00;;
8319;SDS011;4197;42.130;24.746;2022-11-14T14:12:18;28.80;;;20.40;;
8319;SDS011;4197;42.130;24.746;2022-11-14T14:15:02;28.53;;;20.60;;
8319;SDS011;4197;42.130;24.746;2022-11-14T14:17:42;28.63;;;19.87;;
8319;SDS011;4197;42.130;24.746;2022-11-14T14:20:20;28.10;;;20.57;;
8319;SDS011;4197;42.130;24.746;2022-11-14T14:23:00;31.43;;;20.97;;
8319;SDS011;4197;42.130;24.746;2022-11-14T14:25:37;35.93;;;21.63;;
8319;SDS011;4197;42.130;24.746;2022-11-14T14:28:14;32.03;;;19.83;;
8319;SDS011;4197;42.130;24.746;2022-11-14T14:31:10;29.47;;;20.63;;
8319;SDS011;4197;42.130;24.746;2022-11-14T14:33:42;30.47;;;21.57;;
8319;SDS011;4197;42.130;24.746;2022-11-14T14:36:21;30.47;;;21.27;;
8319;SDS011;4197;42.130;24.746;2022-11-14T14:39:06;34.63;;;23.23;;
8319;SDS011;4197;42.130;24.746;2022-11-14T14:41:42;31.40;;;20.97;;
8319;SDS011;4197;42.130;24.746;2022-11-14T14:44:16;32.60;;;22.13;;
8319;SDS011;4197;42.130;24.746;2022-11-14T14:46:49;31.80;;;22.07;;
8319;SDS011;4197;42.130;24.746;2022-11-14T14:49:20;35.70;;;22.87;;
8319;SDS011;4197;42.130;24.746;2022-11-14T14:51:52;36.17;;;23.00;;
8319;SDS011;4197;42.130;24.746;2022-11-14T14:54:24;43.00;;;26.37;;
8319;SDS011;4197;42.130;24.746;2022-11-14T14:56:55;39.63;;;26.40;;
8319;SDS011;4197;42.130;24.746;2022-11-14T14:59:27;38.50;;;26.77;;
8319;SDS011;4197;42.130;24.746;2022-11-14T15:01:58;36.93;;;26.23;;
8319;SDS011;4197;42.130;24.746;2022-11-14T15:04:27;41.73;;;25.00;;
8319;SDS011;4197;42.130;24.746;2022-11-14T15:06:56;38.40;;;25.63;;
8319;SDS011;4197;42.130;24.746;2022-11-14T15:09:25;41.43;;;25.87;;
8319;SDS011;4197;42.130;24.746;2022-11-14T15:11:56;41.60;;;25.03;;
8319;SDS011;4197;42.130;24.746;2022-11-14T15:14:28;36.70;;;26.07;;
8319;SDS011;4197;42.130;24.746;2022-11-14T15:16:59;64.57;;;38.17;;
8319;SDS011;4197;42.130;24.746;2022-11-14T15:19:27;89.90;;;66.13;;
8319;SDS011;4197;42.130;24.746;2022-11-14T15:22:02;67.30;;;47.07;;
8319;SDS011;4197;42.130;24.746;2022-11-14T15:24:32;57.83;;;42.00;;
8319;SDS011;4197;42.130;24.746;2022-11-14T15:27:02;46.23;;;30.77;;
8319;SDS011;4197;42.130;24.746;2022-11-14T15:29:32;52.20;;;30.17;;
8319;SDS011;4197;42.130;24.746;2022-11-14T15:32:02;48.63;;;27.93;;
8319;SDS011;4197;42.130;24.746;2022-11-14T15:34:31;50.87;;;28.67;;